createdAt,value
2022-12-19T00:01:37.036Z,95496.91
2022-12-19T00:04:08.850Z,95489.38
2022-12-19T00:06:38.083Z,95481.56
2022-12-19T00:09:10.412Z,95489.94
2022-12-19T00:11:38.807Z,95470.59
2022-12-19T00:14:06.405Z,95490.50
2022-12-19T00:16:33.296Z,95478.81
2022-12-19T00:19:01.441Z,95475.47
2022-12-19T00:21:34.044Z,95468.78
2022-12-19T00:24:03.255Z,95470.31
2022-12-19T00:26:34.973Z,95456.75
2022-12-19T00:29:09.828Z,95464.13
2022-12-19T00:31:39.446Z,95467.47
2022-12-19T00:34:06.242Z,95435.94
2022-12-19T00:36:34.489Z,95451.97
2022-12-19T00:39:05.677Z,95456.69
2022-12-19T00:41:37.621Z,95467.75
2022-12-19T00:44:13.792Z,95466.28
2022-12-19T00:46:40.685Z,95445.13
2022-12-19T00:49:07.482Z,95451.88
2022-12-19T00:51:37.176Z,95471.59
2022-12-19T00:54:05.496Z,95462.81
2022-12-19T00:56:37.187Z,95455.91
2022-12-19T00:59:04.205Z,95455.97
2022-12-19T01:01:34.808Z,95480.69
2022-12-19T01:04:28.054Z,95471.44
2022-12-19T01:06:51.499Z,95472.34
2022-12-19T01:09:18.822Z,95475.69
2022-12-19T01:12:04.416Z,95464.63
2022-12-19T01:14:31.193Z,95462.66
2022-12-19T01:16:57.932Z,95453.94
2022-12-19T01:19:26.862Z,95446.19
2022-12-19T01:21:53.736Z,95445.00
2022-12-19T01:24:20.461Z,95440.00
2022-12-19T01:26:47.196Z,95439.16
2022-12-19T01:29:14.130Z,95443.94
2022-12-19T01:31:40.950Z,95428.66
2022-12-19T01:34:07.772Z,95399.34
2022-12-19T01:36:40.077Z,95403.38
2022-12-19T01:39:07.674Z,95407.66
2022-12-19T01:41:35.564Z,95420.66
2022-12-19T01:44:07.886Z,95443.66
2022-12-19T01:46:48.502Z,95467.72
2022-12-19T01:49:25.639Z,95474.25
2022-12-19T01:51:56.124Z,95483.28
2022-12-19T01:54:29.246Z,95488.22
2022-12-19T01:56:58.984Z,95499.41
2022-12-19T01:59:37.716Z,95500.34
2022-12-19T02:02:16.017Z,95489.16
2022-12-19T02:04:43.247Z,95480.84
2022-12-19T02:07:15.912Z,95478.81
2022-12-19T02:09:46.874Z,95478.69
2022-12-19T02:12:14.523Z,95467.34
2022-12-19T02:14:41.752Z,95469.78
2022-12-19T02:17:42.549Z,95486.78
2022-12-19T02:20:24.111Z,95477.28
2022-12-19T02:23:18.380Z,95487.47
2022-12-19T02:26:06.836Z,95482.38
2022-12-19T02:29:15.978Z,95467.69
2022-12-19T02:32:19.724Z,95474.44
2022-12-19T02:35:31.932Z,95472.56
2022-12-19T02:38:36.877Z,95465.59
2022-12-19T02:41:25.051Z,95460.44
2022-12-19T02:43:58.928Z,95457.66
2022-12-19T02:46:27.641Z,95455.16
2022-12-19T02:48:54.795Z,95439.69
2022-12-19T02:51:21.539Z,95440.22
2022-12-19T02:53:48.631Z,95443.31
2022-12-19T02:56:46.080Z,95444.19
2022-12-19T02:59:57.271Z,95439.09
2022-12-19T03:02:40.898Z,95455.66
2022-12-19T03:05:24.902Z,95449.13
2022-12-19T03:08:28.253Z,95448.22
2022-12-19T03:11:02.396Z,95442.00
2022-12-19T03:13:46.635Z,95452.31
2022-12-19T03:16:14.265Z,95446.41
2022-12-19T03:18:41.698Z,95465.97
2022-12-19T03:21:32.740Z,95463.16
2022-12-19T03:23:59.673Z,95458.25
2022-12-19T03:26:32.715Z,95448.69
2022-12-19T03:29:13.535Z,95460.22
2022-12-19T03:31:42.081Z,95460.53
2022-12-19T03:34:22.600Z,95462.34
2022-12-19T03:36:56.668Z,95470.69
2022-12-19T03:39:25.532Z,95473.59
2022-12-19T03:42:12.254Z,95477.06
2022-12-19T03:44:42.855Z,95484.03
2022-12-19T03:47:22.988Z,95482.38
2022-12-19T03:49:50.590Z,95487.31
2022-12-19T03:52:35.842Z,95489.81
2022-12-19T03:55:36.374Z,95491.97
2022-12-19T03:58:11.848Z,95483.59
2022-12-19T04:00:47.500Z,95475.09
2022-12-19T04:03:17.314Z,95480.88
2022-12-19T04:05:45.997Z,95475.31
2022-12-19T04:08:13.538Z,95484.38
2022-12-19T04:10:56.156Z,95482.50
2022-12-19T04:13:37.784Z,95483.63
2022-12-19T04:16:19.098Z,95492.72
2022-12-19T04:18:53.548Z,95496.66
2022-12-19T04:21:31.682Z,95493.41
2022-12-19T04:24:10.148Z,95496.38
2022-12-19T04:26:39.435Z,95489.31
2022-12-19T04:29:08.089Z,95484.84
2022-12-19T04:31:36.267Z,95473.59
2022-12-19T04:34:06.108Z,95475.19
2022-12-19T04:36:33.085Z,95470.84
2022-12-19T04:38:59.802Z,95466.44
2022-12-19T04:41:26.566Z,95470.38
2022-12-19T04:43:53.337Z,95449.88
2022-12-19T04:46:20.139Z,95458.06
2022-12-19T04:48:46.979Z,95463.84
2022-12-19T04:51:13.928Z,95454.09
2022-12-19T04:53:40.832Z,95456.53
2022-12-19T04:56:10.346Z,95455.28
2022-12-19T04:58:37.101Z,95442.63
2022-12-19T05:01:06.737Z,95449.38
2022-12-19T05:03:34.513Z,95460.31
2022-12-19T05:06:11.897Z,95456.03
2022-12-19T05:08:41.098Z,95462.50
2022-12-19T05:11:19.148Z,95458.41
2022-12-19T05:13:46.875Z,95440.06
2022-12-19T05:16:15.984Z,95438.38
2022-12-19T05:18:43.557Z,95449.94
2022-12-19T05:21:11.360Z,95430.47
2022-12-19T05:23:38.494Z,95435.31
2022-12-19T05:26:06.321Z,95444.56
2022-12-19T05:28:33.901Z,95441.84
2022-12-19T05:31:05.667Z,95439.16
2022-12-19T05:33:32.529Z,95442.53
2022-12-19T05:35:59.356Z,95437.34
2022-12-19T05:38:27.309Z,95427.84
2022-12-19T05:40:54.158Z,95442.84
2022-12-19T05:43:21.291Z,95442.69
2022-12-19T05:45:48.072Z,95448.75
2022-12-19T05:48:15.088Z,95441.75
2022-12-19T05:50:42.641Z,95446.50
2022-12-19T05:53:10.040Z,95448.34
2022-12-19T05:55:36.778Z,95434.94
2022-12-19T05:58:03.578Z,95442.34
2022-12-19T06:00:30.388Z,95429.50
2022-12-19T06:02:57.385Z,95445.53
2022-12-19T06:05:24.232Z,95455.53
2022-12-19T06:07:51.048Z,95443.44
2022-12-19T06:10:17.818Z,95448.34
2022-12-19T06:12:47.257Z,95444.25
2022-12-19T06:15:14.032Z,95447.38
2022-12-19T06:17:40.810Z,95450.59
2022-12-19T06:20:08.244Z,95453.94
2022-12-19T06:22:36.078Z,95463.38
2022-12-19T06:25:03.019Z,95456.44
2022-12-19T06:27:29.816Z,95446.50
2022-12-19T06:29:56.565Z,95454.78
2022-12-19T06:32:23.352Z,95458.78
2022-12-19T06:35:05.404Z,95467.53
2022-12-19T06:37:32.290Z,95467.38
2022-12-19T06:40:01.917Z,95446.34
2022-12-19T06:42:28.710Z,95452.69
2022-12-19T06:44:56.604Z,95423.97
2022-12-19T06:47:24.419Z,95449.75
2022-12-19T06:49:51.607Z,95436.00
2022-12-19T06:52:18.488Z,95426.53
2022-12-19T06:54:45.310Z,95428.56
2022-12-19T06:57:12.184Z,95426.66
2022-12-19T06:59:38.931Z,95435.91
2022-12-19T07:02:30.526Z,95444.31
2022-12-19T07:05:04.712Z,95434.06
2022-12-19T07:07:31.982Z,95437.47
2022-12-19T07:09:59.117Z,95436.66
2022-12-19T07:12:26.505Z,95448.50
2022-12-19T07:14:53.910Z,95440.22
2022-12-19T07:17:22.803Z,95420.91
2022-12-19T07:19:49.601Z,95434.97
2022-12-19T07:22:16.507Z,95437.47
2022-12-19T07:24:43.700Z,95439.13
2022-12-19T07:27:10.615Z,95448.50
2022-12-19T07:29:37.469Z,95441.47
2022-12-19T07:32:04.489Z,95434.22
2022-12-19T07:34:31.375Z,95444.91
2022-12-19T07:36:58.130Z,95427.97
2022-12-19T07:39:25.370Z,95437.88
2022-12-19T07:41:52.127Z,95436.13
2022-12-19T07:44:18.921Z,95441.66
2022-12-19T07:46:45.745Z,95454.81
2022-12-19T07:49:16.980Z,95444.06
2022-12-19T07:51:46.493Z,95447.22
2022-12-19T07:54:14.291Z,95445.50
2022-12-19T07:56:41.008Z,95439.44
2022-12-19T07:59:08.022Z,95446.13
2022-12-19T08:01:34.890Z,95453.66
2022-12-19T08:04:01.762Z,95444.13
2022-12-19T08:06:28.772Z,95441.81
2022-12-19T08:08:55.608Z,95452.78
2022-12-19T08:11:27.272Z,95437.25
2022-12-19T08:13:55.062Z,95470.97
2022-12-19T08:16:22.858Z,95469.88
2022-12-19T08:18:49.693Z,95463.31
2022-12-19T08:21:16.853Z,95458.22
2022-12-19T08:23:43.632Z,95476.63
2022-12-19T08:26:17.752Z,95471.47
2022-12-19T08:28:48.247Z,95453.78
2022-12-19T08:31:17.969Z,95473.63
2022-12-19T08:33:45.000Z,95469.47
2022-12-19T08:36:15.357Z,95471.59
2022-12-19T08:38:42.295Z,95471.41
2022-12-19T08:41:09.665Z,95473.09
2022-12-19T08:43:36.699Z,95469.56
2022-12-19T08:46:03.736Z,95452.38
2022-12-19T08:48:32.163Z,95465.53
2022-12-19T08:51:02.581Z,95472.19
2022-12-19T08:53:32.669Z,95469.06
2022-12-19T08:56:09.879Z,95469.81
2022-12-19T08:58:36.861Z,95461.22
2022-12-19T09:01:09.137Z,95447.53
2022-12-19T09:03:42.830Z,95464.28
2022-12-19T09:06:23.708Z,95458.06
2022-12-19T09:08:50.505Z,95456.03
2022-12-19T09:11:19.803Z,95447.63
2022-12-19T09:13:48.348Z,95451.31
2022-12-19T09:16:23.615Z,95445.16
2022-12-19T09:18:53.314Z,95431.63
2022-12-19T09:21:23.400Z,95447.38
2022-12-19T09:23:53.919Z,95435.78
2022-12-19T09:26:23.158Z,95441.53
2022-12-19T09:28:51.043Z,95448.75
2022-12-19T09:31:22.551Z,95444.84
2022-12-19T09:33:49.579Z,95430.59
2022-12-19T09:36:23.216Z,95427.34
2022-12-19T09:38:51.367Z,95443.34
2022-12-19T09:41:51.757Z,95433.31
2022-12-19T09:44:52.865Z,95432.94
2022-12-19T09:47:31.822Z,95435.69
2022-12-19T09:50:00.491Z,95426.66
2022-12-19T09:52:45.373Z,95431.16
2022-12-19T09:55:28.379Z,95432.25
2022-12-19T09:58:04.722Z,95431.84
2022-12-19T10:01:00.248Z,95415.88
2022-12-19T10:03:30.533Z,95419.22
2022-12-19T10:07:13.392Z,95423.72
2022-12-19T10:11:45.744Z,95417.38
2022-12-19T10:12:45.399Z,95416.97
2022-12-19T10:15:43.961Z,95403.97
2022-12-19T10:18:34.816Z,95420.84
2022-12-19T10:21:07.935Z,95420.59
2022-12-19T10:23:48.330Z,95414.50
2022-12-19T10:26:34.580Z,95393.91
2022-12-19T10:29:41.764Z,95401.09
2022-12-19T10:32:36.917Z,95407.19
2022-12-19T10:35:16.116Z,95410.13
2022-12-19T10:37:56.753Z,95405.16
2022-12-19T10:40:29.300Z,95389.75
2022-12-19T10:43:44.072Z,95412.19
2022-12-19T10:46:20.301Z,95400.16
2022-12-19T10:48:51.587Z,95404.94
2022-12-19T10:51:30.645Z,95406.91
2022-12-19T10:54:00.356Z,95403.25
2022-12-19T10:56:37.267Z,95399.22
2022-12-19T10:59:21.299Z,95397.34
2022-12-19T11:01:48.653Z,95403.16
2022-12-19T11:04:34.660Z,95392.69
2022-12-19T11:07:04.075Z,95383.09
2022-12-19T11:09:41.913Z,95381.03
2022-12-19T11:15:50.379Z,95388.63
2022-12-19T11:20:36.403Z,95379.16
2022-12-19T11:21:03.847Z,95380.41
2022-12-19T11:29:34.556Z,95367.38
2022-12-19T11:29:36.496Z,95389.22
2022-12-19T11:30:48.856Z,95352.50
2022-12-19T11:32:45.406Z,95350.44
2022-12-19T11:35:37.047Z,95357.06
2022-12-19T11:38:08.485Z,95350.72
2022-12-19T11:40:56.059Z,95340.66
2022-12-19T11:43:46.140Z,95344.03
2022-12-19T11:46:24.967Z,95343.72
2022-12-19T11:49:13.349Z,95334.88
2022-12-19T11:52:29.445Z,95330.28
2022-12-19T11:55:04.764Z,95319.09
2022-12-19T11:57:32.158Z,95321.34
2022-12-19T12:00:04.707Z,95327.72
2022-12-19T12:03:04.631Z,95323.94
2022-12-19T12:05:51.417Z,95315.47
2022-12-19T12:11:38.296Z,95316.28
2022-12-19T12:22:51.278Z,95323.75
2022-12-19T12:25:13.318Z,95326.97
2022-12-19T12:31:01.217Z,95324.81
2022-12-19T12:31:09.104Z,95322.31
2022-12-19T12:32:05.071Z,95336.91
2022-12-19T12:32:05.402Z,95333.44
2022-12-19T12:35:34.262Z,95344.13
2022-12-19T12:38:40.563Z,95327.88
2022-12-19T12:41:12.378Z,95324.94
2022-12-19T12:44:09.317Z,95336.16
2022-12-19T12:46:46.914Z,95325.53
2022-12-19T12:49:42.446Z,95331.75
2022-12-19T12:52:39.579Z,95318.72
2022-12-19T12:55:18.354Z,95305.72
2022-12-19T12:57:45.165Z,95299.78
2022-12-19T13:00:31.582Z,95309.84
2022-12-19T13:03:04.726Z,95309.03
2022-12-19T13:05:46.728Z,95315.06
2022-12-19T13:08:44.875Z,95306.88
2022-12-19T13:11:39.287Z,95312.03
2022-12-19T13:14:45.893Z,95311.84
2022-12-19T13:17:47.600Z,95305.16
2022-12-19T13:20:19.101Z,95313.69
2022-12-19T13:22:59.347Z,95308.50
2022-12-19T13:25:36.159Z,95311.28
2022-12-19T13:28:02.830Z,95307.25
2022-12-19T13:30:31.558Z,95273.19
2022-12-19T13:33:01.225Z,95287.53
2022-12-19T13:39:46.497Z,95296.19
2022-12-19T13:39:54.015Z,95297.75
2022-12-19T13:41:48.729Z,95302.38
2022-12-19T13:44:21.943Z,95303.22
2022-12-19T13:46:49.845Z,95303.22
2022-12-19T13:49:34.133Z,95318.19
2022-12-19T13:52:05.007Z,95324.34
2022-12-19T13:54:45.678Z,95316.72
2022-12-19T13:57:32.810Z,95315.06
2022-12-19T14:00:09.981Z,95316.00
2022-12-19T14:02:55.090Z,95306.75
2022-12-19T14:06:17.424Z,95307.81
2022-12-19T14:08:25.728Z,95301.75
2022-12-19T14:11:47.509Z,95301.56
2022-12-19T14:14:17.669Z,95316.72
2022-12-19T14:16:48.869Z,95292.31
2022-12-19T14:19:25.235Z,95314.84
2022-12-19T14:22:09.023Z,95310.91
2022-12-19T14:24:40.575Z,95313.59
2022-12-19T14:28:21.196Z,95312.78
2022-12-19T14:30:30.406Z,95318.81
2022-12-19T14:33:46.308Z,95310.81
2022-12-19T14:36:10.695Z,95309.50
2022-12-19T14:39:24.939Z,95311.97
2022-12-19T14:42:07.785Z,95318.94
2022-12-19T14:52:35.435Z,95320.09
2022-12-19T14:52:35.817Z,95319.78
2022-12-19T14:54:34.889Z,95293.09
2022-12-19T14:54:42.094Z,95314.50
2022-12-19T14:56:36.302Z,95301.00
2022-12-19T14:59:20.893Z,95310.47
2022-12-19T15:02:27.608Z,95302.97
2022-12-19T15:05:06.028Z,95309.31
2022-12-19T15:07:34.420Z,95307.97
2022-12-19T15:11:08.579Z,95298.91
2022-12-19T15:14:54.393Z,95309.72
2022-12-19T15:16:30.741Z,95312.81
2022-12-19T15:19:00.908Z,95316.56
2022-12-19T15:21:30.454Z,95318.84
2022-12-19T15:23:57.479Z,95314.78
2022-12-19T15:26:34.843Z,95314.22
2022-12-19T15:29:03.342Z,95309.44
2022-12-19T15:31:40.482Z,95304.84
2022-12-19T15:34:36.826Z,95306.09
2022-12-19T15:37:05.018Z,95275.31
2022-12-19T15:39:32.132Z,95295.75
2022-12-19T15:42:00.513Z,95291.44
2022-12-19T15:44:40.148Z,95285.91
2022-12-19T15:47:20.085Z,95294.50
2022-12-19T15:49:47.576Z,95281.50
2022-12-19T15:52:18.762Z,95310.00
2022-12-19T15:54:49.423Z,95314.47
2022-12-19T15:57:42.055Z,95317.53
2022-12-19T16:00:19.863Z,95319.50
2022-12-19T16:05:34.778Z,95315.63
2022-12-19T16:08:01.615Z,95325.44
2022-12-19T16:10:28.716Z,95316.41
2022-12-19T16:12:57.867Z,95319.91
2022-12-19T16:15:34.447Z,95329.66
2022-12-19T16:18:03.852Z,95306.78
2022-12-19T16:20:36.214Z,95309.66
2022-12-19T16:23:03.151Z,95317.41
2022-12-19T16:25:36.937Z,95334.56
2022-12-19T16:28:06.136Z,95331.22
2022-12-19T16:30:35.245Z,95325.19
2022-12-19T16:33:02.381Z,95304.19
2022-12-19T16:36:02.524Z,95306.69
2022-12-19T16:38:17.868Z,95310.63
2022-12-19T16:40:45.773Z,95316.53
2022-12-19T16:43:24.245Z,95329.38
2022-12-19T16:45:51.837Z,95328.63
2022-12-19T16:48:27.649Z,95311.59
2022-12-19T16:50:54.428Z,95318.63
2022-12-19T16:53:21.237Z,95316.06
2022-12-19T16:55:50.197Z,95310.13
2022-12-19T16:58:22.767Z,95311.81
2022-12-19T17:00:52.093Z,95303.84
2022-12-19T17:03:42.950Z,95300.72
2022-12-19T17:06:22.936Z,95309.03
2022-12-19T17:08:49.898Z,95300.53
2022-12-19T17:11:23.670Z,95314.03
2022-12-19T17:14:02.680Z,95301.91
2022-12-19T17:16:31.212Z,95313.28
2022-12-19T17:18:59.196Z,95304.22
2022-12-19T17:21:26.049Z,95301.06
2022-12-19T17:23:53.025Z,95297.56
2022-12-19T17:26:19.876Z,95301.06
2022-12-19T17:28:49.583Z,95300.16
2022-12-19T17:31:24.801Z,95301.91
2022-12-19T17:33:52.058Z,95301.06
2022-12-19T17:36:24.832Z,95291.19
2022-12-19T17:38:52.909Z,95286.94
2022-12-19T17:41:19.766Z,95284.78
2022-12-19T17:43:46.581Z,95287.94
2022-12-19T17:46:22.237Z,95282.84
2022-12-19T17:48:52.568Z,95286.63
2022-12-19T17:51:22.419Z,95291.66
2022-12-19T17:53:49.922Z,95271.75
2022-12-19T17:56:20.687Z,95273.50
2022-12-19T17:58:48.680Z,95294.78
2022-12-19T18:01:23.956Z,95299.03
2022-12-19T18:03:53.025Z,95307.72
2022-12-19T18:06:20.732Z,95300.13
2022-12-19T18:08:48.044Z,95306.22
2022-12-19T18:11:24.780Z,95299.22
2022-12-19T18:13:53.312Z,95310.00
2022-12-19T18:16:26.264Z,95300.97
2022-12-19T18:18:53.176Z,95297.63
2022-12-19T18:21:24.231Z,95300.03
2022-12-19T18:23:51.767Z,95286.91
2022-12-19T18:26:18.657Z,95289.50
2022-12-19T18:28:45.493Z,95294.75
2022-12-19T18:31:20.398Z,95296.25
2022-12-19T18:33:50.607Z,95286.25
2022-12-19T18:36:23.532Z,95277.75
2022-12-19T18:38:51.415Z,95291.44
2022-12-19T18:41:20.173Z,95290.94
2022-12-19T18:43:47.701Z,95298.63
2022-12-19T18:46:26.376Z,95286.78
2022-12-19T18:48:53.455Z,95281.22
2022-12-19T18:51:23.335Z,95277.16
2022-12-19T18:53:51.009Z,95288.81
2022-12-19T18:56:18.050Z,95276.50
2022-12-19T18:58:44.875Z,95285.06
2022-12-19T19:01:17.192Z,95295.19
2022-12-19T19:03:54.458Z,95298.34
2022-12-19T19:06:32.941Z,95287.38
2022-12-19T19:09:03.344Z,95297.53
2022-12-19T19:11:30.180Z,95306.78
2022-12-19T19:13:57.155Z,95300.38
2022-12-19T19:16:26.333Z,95306.63
2022-12-19T19:18:55.991Z,95297.53
2022-12-19T19:21:30.456Z,95292.38
2022-12-19T19:24:19.508Z,95277.13
2022-12-19T19:26:46.451Z,95272.69
2022-12-19T19:29:19.060Z,95272.84
2022-12-19T19:31:48.477Z,95266.19
2022-12-19T19:34:30.161Z,95281.53
2022-12-19T19:37:01.036Z,95285.88
2022-12-19T19:39:28.527Z,95275.25
2022-12-19T19:41:56.456Z,95267.50
2022-12-19T19:44:23.418Z,95276.88
2022-12-19T19:46:50.340Z,95288.72
2022-12-19T19:49:17.368Z,95287.22
2022-12-19T19:51:44.256Z,95272.22
2022-12-19T19:54:11.211Z,95283.00
2022-12-19T19:56:38.211Z,95291.94
2022-12-19T19:59:05.872Z,95284.00
2022-12-19T20:01:32.896Z,95274.78
2022-12-19T20:03:59.880Z,95273.69
2022-12-19T20:06:26.944Z,95247.88
2022-12-19T20:08:53.769Z,95270.63
2022-12-19T20:11:20.927Z,95250.03
2022-12-19T20:13:47.931Z,95242.28
2022-12-19T20:16:18.341Z,95251.44
2022-12-19T20:18:53.224Z,95252.25
2022-12-19T20:21:21.696Z,95245.78
2022-12-19T20:23:48.564Z,95228.22
2022-12-19T20:26:17.133Z,95246.53
2022-12-19T20:28:49.340Z,95266.94
2022-12-19T20:31:19.876Z,95255.94
2022-12-19T20:33:48.589Z,95244.03
2022-12-19T20:36:16.731Z,95264.63
2022-12-19T20:38:43.923Z,95255.47
2022-12-19T20:41:10.995Z,95256.00
2022-12-19T20:43:38.812Z,95265.59
2022-12-19T20:46:14.235Z,95266.81
2022-12-19T20:48:41.900Z,95267.38
2022-12-19T20:51:10.197Z,95255.63
2022-12-19T20:53:39.049Z,95259.16
2022-12-19T20:56:07.940Z,95260.91
2022-12-19T20:58:37.566Z,95268.47
2022-12-19T21:01:17.969Z,95259.97
2022-12-19T21:03:45.287Z,95246.06
2022-12-19T21:06:15.585Z,95240.06
2022-12-19T21:08:42.806Z,95261.88
2022-12-19T21:11:10.124Z,95254.31
2022-12-19T21:13:38.053Z,95255.06
2022-12-19T21:16:08.982Z,95263.38
2022-12-19T21:18:38.669Z,95261.72
2022-12-19T21:21:08.480Z,95248.97
2022-12-19T21:23:35.382Z,95246.66
2022-12-19T21:26:04.889Z,95245.72
2022-12-19T21:28:32.692Z,95232.31
2022-12-19T21:31:05.212Z,95250.47
2022-12-19T21:33:32.425Z,95261.00
2022-12-19T21:36:10.350Z,95261.88
2022-12-19T21:38:37.761Z,95261.81
2022-12-19T21:41:06.621Z,95252.66
2022-12-19T21:43:35.005Z,95257.00
2022-12-19T21:46:10.712Z,95263.97
2022-12-19T21:48:40.383Z,95257.25
2022-12-19T21:51:08.259Z,95263.31
2022-12-19T21:53:36.977Z,95250.47
2022-12-19T21:56:25.459Z,95248.16
2022-12-19T21:59:02.014Z,95253.16
2022-12-19T22:01:30.799Z,95262.56
2022-12-19T22:04:03.987Z,95240.56
2022-12-19T22:06:33.420Z,95250.41
2022-12-19T22:09:02.043Z,95251.91
2022-12-19T22:11:30.225Z,95253.66
2022-12-19T22:14:00.553Z,95252.84
2022-12-19T22:16:28.685Z,95250.41
2022-12-19T22:18:56.628Z,95261.47
2022-12-19T22:21:25.566Z,95247.16
2022-12-19T22:23:52.838Z,95259.81
2022-12-19T22:26:23.292Z,95260.56
2022-12-19T22:28:54.120Z,95261.00
2022-12-19T22:31:29.834Z,95254.06
2022-12-19T22:34:03.141Z,95245.50
2022-12-19T22:36:32.156Z,95242.16
2022-12-19T22:39:01.916Z,95261.13
2022-12-19T22:41:29.155Z,95253.66
2022-12-19T22:43:56.643Z,95238.31
2022-12-19T22:46:30.655Z,95262.81
2022-12-19T22:49:01.388Z,95258.56
2022-12-19T22:51:30.215Z,95246.72
2022-12-19T22:53:58.184Z,95241.00
2022-12-19T22:56:28.996Z,95245.84
2022-12-19T22:59:00.099Z,95239.72
2022-12-19T23:01:30.601Z,95235.31
2022-12-19T23:04:01.505Z,95234.75
2022-12-19T23:06:33.677Z,95241.50
2022-12-19T23:09:00.998Z,95227.09
2022-12-19T23:11:35.564Z,95227.56
2022-12-19T23:14:05.550Z,95228.66
2022-12-19T23:16:32.553Z,95215.34
2022-12-19T23:18:59.336Z,95220.84
2022-12-19T23:21:27.054Z,95225.31
2022-12-19T23:23:55.652Z,95230.00
2022-12-19T23:26:23.726Z,95215.59
2022-12-19T23:29:00.344Z,95216.22
2022-12-19T23:31:28.951Z,95215.47
2022-12-19T23:33:57.229Z,95218.41
2022-12-19T23:37:00.269Z,95231.16
2022-12-19T23:39:12.789Z,95238.97
2022-12-19T23:41:40.097Z,95235.38
2022-12-19T23:44:07.589Z,95235.91
2022-12-19T23:46:34.375Z,95223.81
2022-12-19T23:49:01.260Z,95222.31
2022-12-19T23:51:28.442Z,95223.00
2022-12-19T23:53:56.555Z,95204.75
2022-12-19T23:56:29.967Z,95206.25
2022-12-19T23:58:57.455Z,95214.50
